Leo, Wyoming
Current Conditions -  °F | °C
As of 9:15 AM on Monday 22 Dec 2014 (Local Time) from KEHY Reporting Station
Overcast Overcast  
Wind Chill: 12°   Ceiling: 1100
Heat Index: 27°   Visibility: 7mi
Dew Point: 21°   Wind: 24mph
Humidity: 80%   Direction: 260°W
Pressure: 29.68"   Gusts: NA
Location:  42.0236°N, 106.54°W
Report Text: KEHY 221615Z AUTO 26021KT 7SM OVC011 M03/M06 A2968 RMK AO2
Loading
Personal Weather Stations






























Interactive Weather Map New forecast layout! Learn more

10-Day Weather Forecast

Advertisements
Track Severe Weather on mobile